Time;durP1;ratioP1;P1;durP2;ratioP2;P2;SDS_P1;SDS_P2;PMS_P1;PMS_P2;Temp;Humidity;BMP_temperature;BMP_pressure;BME280_temperature;BME280_humidity;BME280_pressure;Samples;Min_cycle;Max_cycle;Signal;HPM_P1;HPM_P2
2021/06/20 00:00:38;;;;;;;44.67;40.17;;;;;;;21.31;100.00;100331.41;3553217;40;20046;-54
2021/06/20 00:03:06;;;;;;;44.03;39.83;;;;;;;21.28;100.00;100328.81;3561876;40;20082;-53
2021/06/20 00:05:36;;;;;;;46.58;42.08;;;;;;;21.21;100.00;100322.88;3562533;40;20093;-54
2021/06/20 00:08:08;;;;;;;44.65;40.28;;;;;;;21.43;100.00;100319.81;3556703;40;20082;-57
2021/06/20 00:10:37;;;;;;;50.05;44.88;;;;;;;21.53;100.00;100318.69;3557058;40;20094;-53
2021/06/20 00:13:05;;;;;;;47.90;43.25;;;;;;;21.21;100.00;100324.66;3556570;40;20060;-58
2021/06/20 00:15:34;;;;;;;47.75;42.80;;;;;;;21.16;100.00;100322.16;3558523;40;20479;-57
2021/06/20 00:18:02;;;;;;;45.38;41.15;;;;;;;21.14;100.00;100320.50;3556508;40;20049;-55
2021/06/20 00:20:32;;;;;;;47.70;42.83;;;;;;;21.15;100.00;100314.38;3558169;40;20113;-53
2021/06/20 00:23:00;;;;;;;48.42;43.65;;;;;;;21.08;100.00;100309.34;3558289;40;20090;-56
2021/06/20 00:25:28;;;;;;;40.95;37.00;;;;;;;21.10;100.00;100309.28;3560279;40;20050;-54
2021/06/20 00:27:55;;;;;;;44.80;40.38;;;;;;;21.04;100.00;100312.91;3559305;40;20078;-59
2021/06/20 00:30:25;;;;;;;45.90;41.35;;;;;;;21.05;100.00;100300.72;3560461;40;20081;-52
2021/06/20 00:32:53;;;;;;;45.47;40.80;;;;;;;21.08;100.00;100301.53;3560555;40;20359;-58
2021/06/20 00:35:20;;;;;;;43.42;39.28;;;;;;;20.97;100.00;100303.50;3554276;40;20042;-57
2021/06/20 00:37:49;;;;;;;43.70;39.45;;;;;;;20.93;100.00;100301.00;3559775;40;20064;-59
2021/06/20 00:40:18;;;;;;;42.50;38.45;;;;;;;20.96;100.00;100295.75;3559950;40;20094;-56
2021/06/20 00:42:46;;;;;;;42.42;38.25;;;;;;;21.01;100.00;100294.75;3560760;40;20056;-59
2021/06/20 00:45:18;;;;;;;43.08;38.65;;;;;;;21.00;100.00;100286.97;3559431;40;20072;-54
2021/06/20 00:47:46;;;;;;;39.65;35.80;;;;;;;21.20;100.00;100279.53;3559679;40;20061;-57
2021/06/20 00:50:21;;;;;;;37.72;34.03;;;;;;;21.27;100.00;100281.09;3558932;40;20058;-57
2021/06/20 00:53:00;;;;;;;37.95;34.35;;;;;;;21.16;100.00;100277.03;3559049;40;20046;-58
2021/06/20 00:55:30;;;;;;;40.70;36.53;;;;;;;21.04;100.00;100273.00;3557960;40;20120;-55
2021/06/20 00:58:00;;;;;;;37.20;33.70;;;;;;;21.05;100.00;100272.94;3559162;40;20093;-56
2021/06/20 01:00:28;;;;;;;39.83;36.00;;;;;;;21.17;100.00;100277.00;3559950;40;20069;-60
2021/06/20 01:02:56;;;;;;;40.42;36.35;;;;;;;21.10;100.00;100278.91;3558900;40;20093;-56
2021/06/20 01:05:23;;;;;;;38.85;35.20;;;;;;;20.84;100.00;100287.34;3559383;40;20636;-57
2021/06/20 01:07:52;;;;;;;42.67;38.70;;;;;;;20.73;100.00;100280.66;3559281;40;20046;-56
2021/06/20 01:10:21;;;;;;;41.45;37.60;;;;;;;20.72;100.00;100277.19;3554456;40;20093;-55
2021/06/20 01:12:49;;;;;;;40.17;36.13;;;;;;;20.79;100.00;100276.16;3558603;40;20102;-55
2021/06/20 01:15:17;;;;;;;43.08;38.13;;;;;;;20.70;100.00;100278.09;3559515;40;20078;-55
2021/06/20 01:17:45;;;;;;;40.88;36.80;;;;;;;20.69;100.00;100274.66;3558576;40;20723;-55
2021/06/20 01:20:16;;;;;;;40.58;36.88;;;;;;;20.67;100.00;100270.41;3559760;40;20461;-56
2021/06/20 01:22:45;;;;;;;40.63;36.55;;;;;;;20.76;100.00;100263.22;3558418;40;20101;-55
2021/06/20 01:25:19;;;;;;;41.28;37.15;;;;;;;20.64;100.00;100255.69;3559567;40;20101;-57
2021/06/20 01:28:05;;;;;;;42.70;38.60;;;;;;;20.60;100.00;100251.44;3558321;40;20049;-54
2021/06/20 01:30:35;;;;;;;41.17;36.97;;;;;;;20.73;100.00;100239.03;3555986;40;20086;-57
2021/06/20 01:33:06;;;;;;;42.17;38.03;;;;;;;20.60;100.00;100236.69;3559634;40;20037;-57
2021/06/20 01:35:34;;;;;;;46.72;41.90;;;;;;;20.53;100.00;100232.53;3558045;40;20109;-52
2021/06/20 01:38:03;;;;;;;45.70;40.90;;;;;;;20.44;100.00;100224.91;3559456;40;20100;-57
2021/06/20 01:40:31;;;;;;;47.13;42.67;;;;;;;20.49;100.00;100222.22;3547434;40;20068;-60
2021/06/20 01:42:58;;;;;;;45.08;40.50;;;;;;;20.50;100.00;100214.38;3559084;40;20356;-58
2021/06/20 01:45:27;;;;;;;47.33;42.47;;;;;;;20.44;100.00;100214.50;3558352;40;20590;-53
2021/06/20 01:47:58;;;;;;;48.88;44.05;;;;;;;20.36;100.00;100198.19;3558460;40;20442;-58
2021/06/20 01:50:26;;;;;;;50.95;45.50;;;;;;;20.28;100.00;100197.50;3558433;40;20057;-57
2021/06/20 01:53:06;;;;;;;48.85;43.92;;;;;;;20.31;100.00;100194.84;3558767;40;20094;-55
2021/06/20 01:55:35;;;;;;;52.45;47.15;;;;;;;20.22;100.00;100195.91;3557748;40;20069;-57
2021/06/20 01:58:07;;;;;;;52.53;47.42;;;;;;;20.24;100.00;100186.31;3559273;40;20281;-58
2021/06/20 02:00:36;;;;;;;53.08;47.60;;;;;;;20.21;100.00;100173.41;3553840;40;20085;-55
2021/06/20 02:03:13;;;;;;;53.38;48.00;;;;;;;20.13;100.00;100164.06;3553278;40;20056;-59
2021/06/20 02:05:45;;;;;;;51.20;46.15;;;;;;;20.11;100.00;100168.44;3555282;40;20090;-57
2021/06/20 02:08:18;;;;;;;50.55;45.55;;;;;;;20.13;100.00;100174.44;3553010;40;20046;-56
2021/06/20 02:10:49;;;;;;;50.33;45.10;;;;;;;20.11;100.00;100182.31;3553463;40;20050;-51
2021/06/20 02:13:18;;;;;;;49.95;44.97;;;;;;;20.07;100.00;100189.31;3553489;40;20069;-57
2021/06/20 02:15:45;;;;;;;49.83;44.92;;;;;;;20.12;100.00;100183.16;3553433;40;20097;-59
2021/06/20 02:18:13;;;;;;;51.25;45.83;;;;;;;20.05;100.00;100190.22;3553573;40;20042;-58
2021/06/20 02:20:41;;;;;;;47.20;42.20;;;;;;;20.09;100.00;100200.50;3544597;40;20400;-54
2021/06/20 02:23:08;;;;;;;44.92;40.38;;;;;;;20.07;100.00;100207.50;3550562;40;20058;-57
2021/06/20 02:25:36;;;;;;;42.60;38.40;;;;;;;20.09;100.00;100208.31;3553752;40;20053;-57
2021/06/20 02:28:04;;;;;;;42.40;38.20;;;;;;;20.25;100.00;100214.06;3553061;40;20074;-54
2021/06/20 02:30:31;;;;;;;41.78;37.83;;;;;;;20.30;100.00;100224.34;3553499;40;20093;-55
2021/06/20 02:32:58;;;;;;;42.50;38.40;;;;;;;20.13;100.00;100223.84;3553241;40;20058;-59
2021/06/20 02:35:25;;;;;;;42.97;38.72;;;;;;;20.18;100.00;100225.47;3553431;40;20125;-55
2021/06/20 02:37:53;;;;;;;43.97;39.63;;;;;;;20.02;100.00;100224.94;3553324;40;20094;-58
2021/06/20 02:40:21;;;;;;;43.70;39.38;;;;;;;20.02;100.00;100231.88;3550650;40;20065;-57
2021/06/20 02:42:48;;;;;;;40.35;36.45;;;;;;;20.36;100.00;100247.63;3553329;40;20061;-54
2021/06/20 02:45:19;;;;;;;41.58;37.40;;;;;;;20.24;100.00;100234.88;3553051;40;20094;-54
2021/06/20 02:47:47;;;;;;;41.85;37.85;;;;;;;20.04;100.00;100235.28;3553182;40;20552;-56
2021/06/20 02:50:16;;;;;;;38.03;34.60;;;;;;;20.16;100.00;100244.59;3553679;40;20812;-58
2021/06/20 02:52:44;;;;;;;41.20;37.15;;;;;;;20.08;100.00;100256.00;3553583;40;20365;-58
2021/06/20 02:55:11;;;;;;;40.40;36.40;;;;;;;20.16;100.00;100271.44;3553502;40;20796;-54
2021/06/20 02:57:41;;;;;;;43.08;38.80;;;;;;;20.28;100.00;100271.16;3553811;40;20101;-53
2021/06/20 03:00:10;;;;;;;41.53;37.63;;;;;;;20.02;100.00;100260.47;3554936;40;20053;-57
2021/06/20 03:02:39;;;;;;;44.08;39.80;;;;;;;20.31;100.00;100268.50;3559242;40;20045;-56
2021/06/20 03:05:07;;;;;;;42.63;38.75;;;;;;;20.26;100.00;100261.72;3554795;40;20045;-53
2021/06/20 03:07:35;;;;;;;39.53;35.55;;;;;;;20.50;100.00;100255.16;3555462;40;20127;-53
2021/06/20 03:10:04;;;;;;;39.53;35.80;;;;;;;20.32;100.00;100249.41;3558841;40;20051;-57
2021/06/20 03:12:31;;;;;;;43.03;38.90;;;;;;;19.99;100.00;100240.59;3557657;40;20097;-54
2021/06/20 03:14:59;;;;;;;42.60;38.53;;;;;;;19.93;100.00;100240.72;3558401;40;20041;-58
2021/06/20 03:17:29;;;;;;;41.30;37.20;;;;;;;20.28;100.00;100249.50;3557587;40;20074;-56
2021/06/20 03:19:57;;;;;;;40.33;36.33;;;;;;;20.69;100.00;100247.78;3557412;40;20062;-57
2021/06/20 03:22:24;;;;;;;41.30;37.38;;;;;;;20.74;100.00;100238.13;3558021;40;20056;-55
2021/06/20 03:24:51;;;;;;;39.45;35.55;;;;;;;20.77;100.00;100235.44;3557568;40;20085;-56
2021/06/20 03:27:20;;;;;;;39.90;36.08;;;;;;;20.47;100.00;100235.25;3554932;40;20045;-58
2021/06/20 03:29:48;;;;;;;39.97;35.78;;;;;;;20.38;100.00;100244.97;3557661;40;20169;-55
2021/06/20 03:32:17;;;;;;;40.28;36.05;;;;;;;20.21;100.00;100242.75;3558378;40;20089;-53
2021/06/20 03:34:45;;;;;;;41.38;37.60;;;;;;;20.37;100.00;100248.47;3557481;40;20629;-53
2021/06/20 03:37:12;;;;;;;40.83;36.90;;;;;;;20.23;100.00;100239.22;3558616;40;20105;-56
2021/06/20 03:39:44;;;;;;;42.17;38.05;;;;;;;20.16;100.00;100232.44;3557057;40;20053;-56
2021/06/20 03:42:13;;;;;;;45.33;40.88;;;;;;;19.98;100.00;100231.09;3558182;40;20419;-54
2021/06/20 03:44:43;;;;;;;45.40;41.08;;;;;;;19.95;100.00;100235.47;3557219;40;20090;-57
2021/06/20 03:47:14;;;;;;;46.13;41.78;;;;;;;19.98;100.00;100227.63;3553110;40;20338;-57
2021/06/20 03:49:43;;;;;;;49.40;44.45;;;;;;;20.01;100.00;100217.16;3554461;40;20054;-54
2021/06/20 03:52:11;;;;;;;48.78;43.80;;;;;;;20.03;100.00;100215.38;3558998;40;20073;-57
2021/06/20 03:54:38;;;;;;;44.50;39.97;;;;;;;20.11;100.00;100213.50;3557085;40;20113;-54
2021/06/20 03:57:05;;;;;;;47.22;42.05;;;;;;;20.11;100.00;100207.44;3556373;40;20096;-56
2021/06/20 03:59:33;;;;;;;46.60;41.90;;;;;;;20.22;100.00;100201.09;3558585;40;20116;-55
2021/06/20 04:02:00;;;;;;;49.38;44.33;;;;;;;20.21;100.00;100186.41;3557231;40;20163;-52
2021/06/20 04:04:27;;;;;;;49.65;45.05;;;;;;;20.18;100.00;100183.84;3558335;40;20046;-58
2021/06/20 04:06:54;;;;;;;49.10;44.33;;;;;;;20.19;100.00;100171.72;3557507;40;20060;-52
2021/06/20 04:09:21;;;;;;;50.05;45.13;;;;;;;20.25;100.00;100174.19;3557754;40;20086;-54
2021/06/20 04:11:48;;;;;;;49.40;44.15;;;;;;;20.37;100.00;100171.28;3557910;40;20066;-55
2021/06/20 04:14:16;;;;;;;44.13;39.75;;;;;;;20.78;100.00;100180.75;3557320;40;20450;-58
2021/06/20 04:16:43;;;;;;;45.95;41.80;;;;;;;21.07;100.00;100189.59;3558403;40;20343;-53
2021/06/20 04:19:10;;;;;;;41.85;37.75;;;;;;;21.58;100.00;100195.22;3557000;40;20074;-57
2021/06/20 04:21:38;;;;;;;44.35;40.28;;;;;;;21.37;100.00;100193.19;3557185;40;20464;-59
2021/06/20 04:24:05;;;;;;;45.50;40.95;;;;;;;20.94;100.00;100183.84;3558382;40;20108;-54
2021/06/20 04:26:32;;;;;;;43.55;39.22;;;;;;;20.83;100.00;100170.25;3557149;40;20368;-54
2021/06/20 04:29:00;;;;;;;44.15;39.58;;;;;;;20.80;100.00;100175.53;3557730;40;20769;-58
2021/06/20 04:31:27;;;;;;;45.63;41.42;;;;;;;20.88;100.00;100170.97;3557582;40;20089;-56
2021/06/20 04:33:54;;;;;;;43.90;39.42;;;;;;;21.25;100.00;100164.81;3557562;40;20347;-56
2021/06/20 04:36:21;;;;;;;44.70;40.50;;;;;;;21.06;100.00;100167.06;3557653;40;20145;-53
2021/06/20 04:38:48;;;;;;;44.95;40.42;;;;;;;21.16;100.00;100163.31;3557021;40;20097;-53
2021/06/20 04:41:17;;;;;;;43.28;39.10;;;;;;;21.10;100.00;100163.47;3558214;40;20116;-55
2021/06/20 04:46:28;;;;;;;43.88;39.67;;;;;;;21.23;100.00;100158.81;3565962;40;20070;-60
2021/06/20 04:48:58;;;;;;;43.47;38.83;;;;;;;21.37;100.00;100159.31;3564477;40;20348;-60
2021/06/20 04:51:25;;;;;;;43.97;39.67;;;;;;;21.47;100.00;100163.38;3557709;40;20081;-55
2021/06/20 04:53:52;;;;;;;44.53;39.95;;;;;;;21.70;100.00;100159.28;3557539;40;20057;-54
2021/06/20 04:56:19;;;;;;;41.80;37.95;;;;;;;21.65;100.00;100163.75;3554660;40;20085;-56
2021/06/20 04:58:46;;;;;;;43.40;39.38;;;;;;;21.74;100.00;100160.91;3555614;40;20042;-56
2021/06/20 05:01:13;;;;;;;41.95;37.75;;;;;;;21.98;100.00;100160.16;3558228;40;20539;-57
2021/06/20 05:03:41;;;;;;;44.70;40.35;;;;;;;21.92;100.00;100159.50;3556935;40;20050;-54
2021/06/20 05:06:08;;;;;;;43.38;39.03;;;;;;;22.20;100.00;100164.78;3549274;40;20042;-52
2021/06/20 05:08:35;;;;;;;43.53;39.42;;;;;;;22.17;100.00;100163.09;3559802;40;20056;-58
2021/06/20 05:11:02;;;;;;;45.25;40.47;;;;;;;22.30;100.00;100164.44;3555656;40;20086;-59
2021/06/20 05:13:29;;;;;;;40.97;37.08;;;;;;;22.70;98.31;100168.41;3554440;40;20050;-55
2021/06/20 05:15:56;;;;;;;43.70;39.53;;;;;;;22.81;98.68;100160.22;3553990;40;20049;-52
2021/06/20 05:18:24;;;;;;;42.42;38.38;;;;;;;22.96;97.93;100167.56;3553922;40;20065;-53
2021/06/20 05:20:51;;;;;;;44.63;40.35;;;;;;;22.96;98.58;100162.34;3553953;40;20097;-54
2021/06/20 05:23:19;;;;;;;43.67;39.40;;;;;;;23.11;96.69;100164.44;3554281;40;20476;-54
2021/06/20 05:25:47;;;;;;;43.80;39.80;;;;;;;23.10;99.42;100165.31;3553695;40;20053;-58
2021/06/20 05:28:14;;;;;;;40.88;37.17;;;;;;;23.55;93.78;100166.38;3553868;40;20054;-54
2021/06/20 05:30:45;;;;;;;42.45;38.33;;;;;;;23.38;94.60;100169.59;3553935;40;20053;-56
2021/06/20 05:33:14;;;;;;;40.03;36.40;;;;;;;23.61;94.93;100179.22;3553786;40;20358;-55
2021/06/20 05:35:41;;;;;;;42.65;38.67;;;;;;;23.88;94.51;100191.31;3554007;40;20054;-58
2021/06/20 05:38:11;;;;;;;41.35;37.65;;;;;;;24.53;90.63;100189.72;3549033;40;20050;-55
2021/06/20 05:40:39;;;;;;;41.60;37.70;;;;;;;24.63;86.83;100192.81;3552021;40;20101;-56
2021/06/20 05:43:08;;;;;;;41.83;38.22;;;;;;;24.49;90.95;100190.75;3550742;40;20045;-59
2021/06/20 05:45:36;;;;;;;42.40;38.45;;;;;;;24.73;88.59;100201.13;3553953;40;20073;-57
2021/06/20 05:48:04;;;;;;;39.95;36.33;;;;;;;25.05;86.17;100200.69;3553680;40;20301;-56
2021/06/20 05:50:31;;;;;;;40.95;37.35;;;;;;;25.06;83.66;100207.63;3554025;40;20070;-56
2021/06/20 05:53:02;;;;;;;41.63;38.03;;;;;;;24.63;89.66;100196.28;3553422;40;20649;-53
2021/06/20 05:55:30;;;;;;;42.78;38.55;;;;;;;24.69;89.67;100187.34;3553746;40;20108;-54
2021/06/20 05:58:01;;;;;;;41.20;37.50;;;;;;;24.78;90.04;100192.19;3553612;40;20109;-58
2021/06/20 06:00:29;;;;;;;43.67;39.78;;;;;;;25.15;87.48;100195.94;3553713;40;20073;-57
2021/06/20 06:02:58;;;;;;;42.13;38.25;;;;;;;25.06;87.44;100199.75;3553407;40;20053;-58
2021/06/20 06:05:30;;;;;;;44.58;40.55;;;;;;;24.61;89.43;100194.66;3553344;40;20092;-55
2021/06/20 06:08:00;;;;;;;43.63;39.72;;;;;;;24.66;87.44;100186.59;3553859;40;20058;-55
2021/06/20 06:10:29;;;;;;;43.60;39.85;;;;;;;24.89;86.21;100186.50;3553781;40;20058;-57
2021/06/20 06:13:00;;;;;;;40.85;37.35;;;;;;;24.95;85.93;100188.00;3553554;40;20756;-56
2021/06/20 06:15:27;;;;;;;43.00;38.97;;;;;;;24.99;86.80;100193.06;3553500;40;20042;-55
2021/06/20 06:17:55;;;;;;;42.70;38.80;;;;;;;25.00;86.10;100192.13;3553311;40;20076;-56
2021/06/20 06:20:22;;;;;;;43.42;39.50;;;;;;;25.53;85.94;100202.13;3552988;40;20431;-55
2021/06/20 06:22:49;;;;;;;42.10;38.28;;;;;;;25.90;83.97;100205.75;3553673;40;20056;-54
2021/06/20 06:25:18;;;;;;;41.65;37.72;;;;;;;25.93;85.44;100203.00;3553593;40;20050;-53
2021/06/20 06:27:46;;;;;;;41.70;37.80;;;;;;;26.05;83.18;100194.56;3553312;40;20110;-53
2021/06/20 06:30:15;;;;;;;42.25;38.25;;;;;;;26.27;80.69;100209.31;3553663;40;20143;-56
2021/06/20 06:32:45;;;;;;;41.30;37.60;;;;;;;26.26;81.60;100205.84;3553386;40;20061;-58
2021/06/20 06:35:14;;;;;;;39.70;35.95;;;;;;;26.58;77.96;100201.72;3553343;40;20963;-55
2021/06/20 06:37:43;;;;;;;41.42;37.85;;;;;;;26.39;78.95;100192.97;3553312;40;20081;-57
2021/06/20 06:40:11;;;;;;;40.83;37.30;;;;;;;26.49;78.93;100194.28;3554086;40;20348;-56
2021/06/20 06:42:39;;;;;;;40.15;36.83;;;;;;;26.78;76.70;100203.34;3553876;40;20062;-56
2021/06/20 06:45:07;;;;;;;39.78;36.05;;;;;;;26.91;76.29;100204.44;3553401;40;20090;-56
2021/06/20 06:47:35;;;;;;;41.30;37.42;;;;;;;27.01;78.93;100191.69;3553419;40;20109;-58
2021/06/20 06:50:04;;;;;;;41.65;38.08;;;;;;;27.29;75.95;100198.22;3553456;40;20393;-56
2021/06/20 06:52:32;;;;;;;42.38;38.40;;;;;;;27.37;77.17;100189.00;3553328;40;20199;-51
2021/06/20 06:54:59;;;;;;;41.15;37.63;;;;;;;27.75;74.73;100188.78;3553326;40;20408;-55
2021/06/20 06:57:27;;;;;;;38.58;35.17;;;;;;;28.16;72.16;100186.53;3553383;40;20086;-56
2021/06/20 06:59:54;;;;;;;39.28;35.88;;;;;;;28.62;67.24;100191.88;3553425;40;20112;-53
2021/06/20 07:02:25;;;;;;;39.10;35.60;;;;;;;28.68;66.31;100186.25;3553237;40;20069;-54
2021/06/20 07:04:52;;;;;;;38.42;35.17;;;;;;;28.48;71.22;100189.19;3553515;40;20081;-54
2021/06/20 07:07:25;;;;;;;37.15;34.05;;;;;;;28.90;67.18;100191.13;3550323;40;20049;-54
2021/06/20 07:09:58;;;;;;;39.05;35.35;;;;;;;28.65;71.02;100186.41;3549107;40;20053;-53
2021/06/20 07:12:34;;;;;;;39.10;35.42;;;;;;;28.51;72.31;100185.50;3553858;40;20053;-58
2021/06/20 07:15:04;;;;;;;39.22;35.83;;;;;;;28.29;72.07;100184.06;3546992;40;20062;-56
2021/06/20 07:17:32;;;;;;;35.72;32.72;;;;;;;28.33;68.36;100172.44;3553511;40;20049;-58
2021/06/20 07:20:00;;;;;;;37.38;34.10;;;;;;;28.41;70.87;100167.59;3553293;40;20094;-56
2021/06/20 07:22:28;;;;;;;35.88;32.88;;;;;;;28.66;70.27;100172.31;3550577;40;20078;-59
2021/06/20 07:24:56;;;;;;;33.53;30.60;;;;;;;28.63;68.11;100169.00;3550752;40;20359;-58
2021/06/20 07:27:23;;;;;;;33.65;30.50;;;;;;;28.64;69.98;100168.06;3551013;40;20424;-50
2021/06/20 07:29:50;;;;;;;32.50;29.63;;;;;;;28.90;68.85;100170.03;3550027;40;20086;-55
2021/06/20 07:32:17;;;;;;;31.65;28.75;;;;;;;29.22;66.88;100172.56;3550620;40;20042;-52
2021/06/20 07:34:45;;;;;;;32.63;29.90;;;;;;;29.10;65.09;100168.88;3550184;40;20068;-56
2021/06/20 07:37:15;;;;;;;31.55;28.80;;;;;;;29.34;66.51;100161.28;3550474;40;20046;-54
2021/06/20 07:39:42;;;;;;;30.63;27.95;;;;;;;29.50;63.90;100158.56;3550150;40;20082;-56
2021/06/20 07:42:10;;;;;;;28.80;26.20;;;;;;;29.77;60.43;100163.09;3550981;40;20080;-60
2021/06/20 07:44:37;;;;;;;28.73;26.33;;;;;;;30.32;60.96;100170.16;3550082;40;20046;-54
2021/06/20 07:47:04;;;;;;;26.65;24.25;;;;;;;30.95;58.56;100169.53;3550118;40;20057;-58
2021/06/20 07:49:32;;;;;;;28.13;25.63;;;;;;;30.85;59.01;100174.59;3550294;40;20060;-54
2021/06/20 07:51:59;;;;;;;27.98;25.38;;;;;;;30.52;62.54;100164.44;3550204;40;20050;-58
2021/06/20 07:54:29;;;;;;;27.23;24.70;;;;;;;31.01;58.56;100170.91;3558409;40;20065;-60
2021/06/20 07:56:56;;;;;;;27.33;24.75;;;;;;;30.91;56.82;100165.38;3556772;40;20057;-57
2021/06/20 07:59:26;;;;;;;25.17;23.23;;;;;;;30.84;58.30;100157.03;3554090;40;20404;-57
2021/06/20 08:01:54;;;;;;;26.80;24.50;;;;;;;30.69;57.24;100147.44;3556552;40;20061;-57
2021/06/20 08:04:22;;;;;;;26.70;24.10;;;;;;;30.57;57.74;100138.53;3558030;40;20093;-58
2021/06/20 08:09:23;;;;;;;25.67;23.23;;;;;;;30.79;59.26;100142.44;3550751;40;20058;-51
2021/06/20 08:11:51;;;;;;;25.73;23.30;;;;;;;30.90;57.43;100139.91;3541566;40;20050;-51
2021/06/20 08:14:19;;;;;;;24.42;22.33;;;;;;;31.54;55.86;100143.41;3560489;40;20428;-50
2021/06/20 08:16:47;;;;;;;24.67;22.38;;;;;;;31.48;56.88;100135.03;3560166;40;20089;-50
2021/06/20 08:19:14;;;;;;;24.48;22.33;;;;;;;31.96;57.13;100143.97;3561680;40;20355;-50
2021/06/20 08:21:43;;;;;;;24.10;22.20;;;;;;;32.09;54.70;100139.50;3558891;40;20073;-49
2021/06/20 08:24:12;;;;;;;22.13;20.35;;;;;;;32.93;49.33;100140.34;3560777;40;20049;-56
2021/06/20 08:26:40;;;;;;;22.00;20.00;;;;;;;32.38;52.80;100136.53;3559799;40;20054;-52
2021/06/20 08:29:08;;;;;;;20.67;19.00;;;;;;;33.19;48.53;100133.03;3560592;40;20045;-54
2021/06/20 08:31:35;;;;;;;19.23;17.60;;;;;;;33.11;48.25;100130.13;3560115;40;20090;-51
2021/06/20 08:34:02;;;;;;;19.50;17.80;;;;;;;33.57;45.35;100126.56;3560483;40;20415;-48
2021/06/20 08:36:33;;;;;;;18.63;17.13;;;;;;;33.55;44.23;100131.97;3560785;40;20081;-51
2021/06/20 08:39:00;;;;;;;18.98;17.10;;;;;;;33.18;46.21;100121.56;3560173;40;20465;-53
2021/06/20 08:41:38;;;;;;;17.33;15.75;;;;;;;33.27;43.91;100122.66;3561138;40;20132;-51
2021/06/20 08:44:25;;;;;;;16.25;14.73;;;;;;;33.44;46.38;100121.38;3562127;40;21159;-48
2021/06/20 08:46:55;;;;;;;14.07;12.93;;;;;;;33.92;39.82;100126.34;3561909;40;20057;-50
2021/06/20 08:49:27;;;;;;;14.10;13.00;;;;;;;33.95;41.64;100128.81;3560430;40;20054;-50
2021/06/20 08:51:58;;;;;;;14.68;13.55;;;;;;;34.35;42.15;100129.03;3561470;40;20106;-47
2021/06/20 08:54:27;;;;;;;13.85;12.65;;;;;;;34.25;40.11;100132.56;3561279;40;20053;-52
2021/06/20 08:56:55;;;;;;;13.27;11.75;;;;;;;34.23;40.13;100122.06;3561023;40;20416;-55
2021/06/20 08:59:26;;;;;;;13.75;12.55;;;;;;;33.67;39.03;100122.19;3562008;40;20072;-49
2021/06/20 09:01:57;;;;;;;14.40;13.13;;;;;;;34.05;39.53;100121.78;3561169;40;20140;-51
2021/06/20 09:04:30;;;;;;;13.65;12.30;;;;;;;34.26;38.26;100123.66;3560542;40;20139;-47
2021/06/20 09:07:05;;;;;;;12.98;11.82;;;;;;;33.82;37.42;100133.38;3561413;40;20052;-47
2021/06/20 09:09:37;;;;;;;12.90;11.73;;;;;;;33.70;36.56;100129.91;3561824;40;20049;-50
2021/06/20 09:12:14;;;;;;;13.18;11.95;;;;;;;33.95;38.11;100128.81;3561860;40;20049;-47
2021/06/20 09:14:45;;;;;;;12.75;11.65;;;;;;;34.49;37.09;100129.75;3561239;40;20112;-50
2021/06/20 09:17:24;;;;;;;13.40;12.13;;;;;;;34.42;37.57;100135.53;3561484;40;20069;-53
2021/06/20 09:20:00;;;;;;;12.95;11.95;;;;;;;34.12;37.31;100122.97;3561256;40;20057;-51
2021/06/20 09:22:28;;;;;;;13.52;12.43;;;;;;;34.05;37.21;100121.78;3561526;40;20382;-52
2021/06/20 09:25:00;;;;;;;13.45;12.35;;;;;;;34.43;36.26;100120.41;3552075;40;20064;-50
2021/06/20 09:27:29;;;;;;;13.88;12.55;;;;;;;34.87;36.25;100111.38;3562444;40;20135;-52
2021/06/20 09:30:11;;;;;;;13.18;11.93;;;;;;;35.01;36.37;100118.22;3552066;40;20045;-49
2021/06/20 09:32:51;;;;;;;13.95;12.07;;;;;;;35.71;35.14;100108.56;3560631;40;20143;-49
2021/06/20 09:35:20;;;;;;;13.68;12.32;;;;;;;35.63;35.11;100109.25;3559896;40;20045;-50
2021/06/20 09:37:57;;;;;;;15.63;14.23;;;;;;;35.15;36.30;100112.53;3560740;40;20054;-51
2021/06/20 09:40:29;;;;;;;14.73;13.45;;;;;;;35.37;35.22;100108.03;3560977;40;20085;-51
2021/06/20 09:42:59;;;;;;;13.73;12.23;;;;;;;35.65;35.29;100112.63;3555975;40;20054;-48
2021/06/20 09:45:33;;;;;;;16.70;10.93;;;;;;;35.37;35.33;100108.88;3559130;40;20054;-51
2021/06/20 09:48:03;;;;;;;11.85;10.48;;;;;;;35.26;34.96;100114.25;3557017;40;20068;-47
2021/06/20 09:50:42;;;;;;;12.27;11.02;;;;;;;35.03;34.83;100113.59;3559199;40;20058;-49
2021/06/20 09:53:11;;;;;;;14.25;10.88;;;;;;;35.31;34.37;100113.88;3558863;40;20098;-48
2021/06/20 09:55:38;;;;;;;12.05;10.70;;;;;;;35.14;34.42;100116.19;3558851;40;20080;-46
2021/06/20 09:58:12;;;;;;;13.32;11.02;;;;;;;35.71;34.33;100106.75;3559711;40;20067;-47
2021/06/20 10:00:42;;;;;;;13.13;11.23;;;;;;;35.98;34.21;100107.09;3557571;40;20061;-52
2021/06/20 10:03:23;;;;;;;15.50;11.73;;;;;;;35.94;33.32;100107.34;3558810;40;20068;-48
2021/06/20 10:05:53;;;;;;;14.38;11.30;;;;;;;36.20;33.05;100097.03;3559831;40;20493;-50
2021/06/20 10:08:21;;;;;;;14.02;12.57;;;;;;;36.97;31.11;100089.91;3559971;40;20065;-56
2021/06/20 10:10:49;;;;;;;13.23;11.38;;;;;;;37.30;32.17;100103.72;3560182;40;20054;-50
2021/06/20 10:13:17;;;;;;;13.75;11.75;;;;;;;38.47;30.16;100115.41;3559209;40;20061;-50
2021/06/20 10:15:46;;;;;;;16.80;11.13;;;;;;;39.49;27.46;100124.59;3559149;40;20061;-50
2021/06/20 10:18:16;;;;;;;11.75;10.50;;;;;;;40.24;27.05;100121.97;3559357;40;20059;-49
2021/06/20 10:20:43;;;;;;;15.85;11.05;;;;;;;39.94;27.08;100118.91;3556560;40;20366;-47
2021/06/20 10:23:23;;;;;;;15.25;10.77;;;;;;;41.99;25.91;100125.59;3555476;40;20463;-46
2021/06/20 10:25:50;;;;;;;12.80;10.43;;;;;;;41.57;25.22;100109.84;3554986;40;20319;-51
2021/06/20 10:28:23;;;;;;;12.27;11.00;;;;;;;42.46;23.35;100111.94;3555015;40;20090;-51
2021/06/20 10:30:50;;;;;;;11.13;10.07;;;;;;;44.09;22.83;100122.66;3555526;40;20060;-56
2021/06/20 10:33:23;;;;;;;14.90;10.30;;;;;;;44.41;21.48;100126.72;3555032;40;20348;-50
2021/06/20 10:36:06;;;;;;;12.45;10.98;;;;;;;44.21;21.82;100115.72;3555438;40;20448;-50
2021/06/20 10:38:46;;;;;;;19.70;11.77;;;;;;;43.76;23.07;100108.81;3554535;40;20106;-53
2021/06/20 10:41:23;;;;;;;14.23;10.88;;;;;;;43.88;23.48;100128.91;3555591;40;20105;-51
2021/06/20 10:44:02;;;;;;;12.93;10.25;;;;;;;43.51;22.28;100121.81;3555477;40;20076;-53
2021/06/20 10:46:29;;;;;;;15.65;11.13;;;;;;;42.65;23.32;100113.31;3556058;40;20086;-49
2021/06/20 10:48:58;;;;;;;13.65;11.27;;;;;;;42.18;24.00;100108.94;3556427;40;20462;-49
2021/06/20 10:51:25;;;;;;;18.88;11.13;;;;;;;42.78;24.53;100115.38;3554976;40;20129;-52
2021/06/20 10:53:52;;;;;;;13.10;11.73;;;;;;;43.82;23.46;100123.38;3555512;40;20089;-51
2021/06/20 10:56:39;;;;;;;18.10;10.90;;;;;;;45.17;21.94;100136.88;3554669;40;20119;-54
2021/06/20 10:59:07;;;;;;;17.85;12.18;;;;;;;44.36;22.84;100134.56;3554891;40;20123;-52
2021/06/20 11:01:42;;;;;;;16.20;11.57;;;;;;;43.84;24.46;100126.78;3554990;40;20086;-49
2021/06/20 11:04:10;;;;;;;13.00;10.25;;;;;;;44.28;22.33;100139.28;3555177;40;20064;-51
2021/06/20 11:06:37;;;;;;;20.42;11.82;;;;;;;44.54;21.94;100126.00;3554410;40;20079;-56
2021/06/20 11:09:05;;;;;;;14.60;10.32;;;;;;;45.12;21.37;100142.88;3555101;40;20343;-52
2021/06/20 11:11:47;;;;;;;25.17;11.80;;;;;;;43.73;22.35;100120.00;3554788;40;20089;-57
2021/06/20 11:14:15;;;;;;;19.27;10.75;;;;;;;44.72;21.79;100134.47;3555029;40;20069;-51
2021/06/20 11:16:45;;;;;;;23.80;11.45;;;;;;;45.32;21.60;100131.31;3554643;40;20454;-53
2021/06/20 11:19:17;;;;;;;18.65;11.20;;;;;;;45.08;22.74;100141.59;3554777;40;20055;-50
2021/06/20 11:21:47;;;;;;;21.45;11.40;;;;;;;45.38;21.59;100136.75;3555162;40;20295;-54